AirNav   Air Wisconsin pilot careers
 
 955 users online  

12J Brewton Municipal Airport
Brewton, Alabama, USA

GOING TO BREWTON?


FAA INFORMATION EFFECTIVE 31 JANUARY 2019

Location

FAA Identifier: 12J
Lat/Long: 31-03-03.0000N / 087-03-57.5000W
31-03.050000N / 087-03.958333W
31.0508333 / -87.0659722
(estimated)
Elevation: 98.7 ft. / 30.1 m (surveyed)
Variation: 01W (2000)
From city: 3 miles S of BREWTON, AL
Time zone: UTC -6 (UTC -5 during Daylight Saving Time)
Zip code: 36426

Airport Operations

Airport use: Open to the public
Activation date: 06/1944
Control tower: no
ARTCC: JACKSONVILLE CENTER
FSS: ANNISTON FLIGHT SERVICE STATION
NOTAMs facility: ANB (NOTAM-D service available)
Attendance: MON-FRI 0730-1700, ALL SAT 0830-1700
AFTER HRS CALL 251-867-9997.
Wind indicator: lighted
Segmented circle: yes
Lights: ACTVT MIRL RY 12/30 & PAPI RYS 12 & 30 - CTAF.
Beacon: white-green (lighted land airport)
Operates sunset to sunrise.

Airport Communications

CTAF/UNICOM: 122.725
WX AWOS-3PT: 119.325 (251-809-2987)
PENSACOLA APPROACH: 127.35
PENSACOLA DEPARTURE: 127.35
WX ASOS at NSE (20 nm S): PHONE 850-623-7241

Nearby radio navigation aids

VOR radial/distance  VOR name  Freq  Var
CEWr301/24.0CRESTVIEW VORTAC115.9003E
MVCr145/28.6MONROEVILLE VORTAC116.8004E
NUNr021/(37.4)SAUFLEY VOR108.8001E

 
NDB name  Hdg/Dist  Freq  Var  ID
PICKENS011/37.332602WPKZ .--. -.- --..
JUDD248/37.926402WJUY .--- ..- -.--

Airport Services

Fuel available: 100LL JET-A+
Parking: hangars and tiedowns
Airframe service: MAJOR
Powerplant service: MAJOR
Bottled oxygen: NONE
Bulk oxygen: NONE

Runway Information

Runway 6/24

Dimensions: 5136 x 150 ft. / 1565 x 46 m
Surface: asphalt, in good condition
Weight bearing capacity: 
Single wheel: 40.0
Double wheel: 60.0
Runway edge markings: RWY 06/24 MARKINGS FADED.
RUNWAY 6  RUNWAY 24
Latitude: 31-02.998458N31-03.384532N
Longitude: 087-04.547052W087-03.671163W
Elevation: 80.9 ft.83.3 ft.
Gradient: 0.1%0.1%
Traffic pattern: leftleft
Runway heading: 064 magnetic, 063 true244 magnetic, 243 true
Markings: nonprecision, in fair conditionnonprecision, in fair condition
Touchdown point: yes, no lightsyes, no lights
Obstructions: 6 ft. tree, 245 ft. from runway, 17 ft. left of centerline, 6:1 slope to clear91 ft. trees, 1279 ft. from runway, 175 ft. right of centerline, 11:1 slope to clear

Runway 12/30

Dimensions: 5001 x 150 ft. / 1524 x 46 m
Surface: asphalt, in good condition
Weight bearing capacity: 
Single wheel: 40.0
Double wheel: 60.0
Runway edge lights: medium intensity
Runway edge markings: RWY 12/30 MARKINGS FADED.
RUNWAY 12  RUNWAY 30
Latitude: 31-03.095263N31-02.684428N
Longitude: 087-04.376372W087-03.545480W
Elevation: 81.9 ft.98.7 ft.
Gradient: 0.3%0.3%
Traffic pattern: leftleft
Runway heading: 121 magnetic, 120 true301 magnetic, 300 true
Markings: nonprecision, in fair conditionnonprecision, in fair condition
Visual slope indicator: 2-light PAPI on left (3.00 degrees glide path)2-light PAPI on left (3.00 degrees glide path)
Touchdown point: yes, no lightsyes, no lights
Obstructions: 47 ft. trees, 1191 ft. from runway, 116 ft. left of centerline, 20:1 slope to clearnone

Airport Ownership and Management from official FAA records

Ownership: Publicly-owned
Owner: CITY OF BREWTON
PO BOX 368
BREWTON, AL 36427
Phone 251-867-3281
Manager: EARL LAMBERT
205 AIRPORT DRIVE
BREWTON, AL 36426
Phone 251-867-9997

Airport Operational Statistics

Aircraft based on the field: 28
Single engine airplanes: 18
Multi engine airplanes: 3
Helicopters: 7
    
Aircraft operations: avg 453/day *
91% military
4% transient general aviation
4% local general aviation
1% air taxi
* for 12-month period ending 01 March 2017

Additional Remarks

MIL TRNG ACFT MONTR UNICOM AND YIELD TO ALL CIV OPNS.
USN PILOT TRNG FM WHITING FLD.
MIL ACFT RQR PRIOR CDN WITH NAS WHITING FLD, DSN 868-7654, C850-623-7645.

Instrument Procedures

NOTE: All procedures below are presented as PDF files. If you need a reader for these files, you should download the free Adobe Reader.

NOT FOR NAVIGATION. Please procure official charts for flight.
FAA instrument procedures published for use from 31 January 2019 at 0901Z to 28 February 2019 at 0900Z.

 
IAPs - Instrument Approach Procedures
RNAV (GPS) RWY 06   download (173KB)
RNAV (GPS) RWY 12   download (227KB)
RNAV (GPS) RWY 24   download (177KB)
RNAV (GPS) RWY 30   download (228KB)
VOR/DME RWY 30   download (194KB)
NOTE: Special Take-Off Minimums/Departure Procedures apply   download (189KB)

Other nearby airports with instrument procedures:

0R1 - Atmore Municipal Airport (20 nm W)
KNSE - Whiting Field Naval Air Station North (20 nm S)
KNDZ - Whiting Field Naval Air Station South (21 nm S)
KGZH - Evergreen Regional Airport/Middleton Field (22 nm N)
2R4 - Peter Prince Field Airport (25 nm S)
 
Loc | Ops | Rwys | IFR | FBO | Links
Com | Nav | Svcs | Stats | Notes
Area around 12J (Brewton Municipal Airport)
 
Road maps at: MapQuest Bing Google
 
Aerial photo
WARNING: Photo may not be current or correct
Aerial photo of 12J (Brewton Municipal Airport)
Photo by Ryan Hegerty, 11-Jan-2004

Do you have a better or more recent aerial photo of Brewton Municipal Airport that you would like to share? If so, please send us your photo.

 
Sectional chart

 
Airport distance calculator
Flying to Brewton Municipal Airport? Find the distance to fly.

From to 12J

Sunrise and sunset
Times for 22-Feb-2019
 Local
(UTC-6)
 Zulu
(UTC)
Morning civil twilight05:5911:59
Sunrise06:2412:24
Sunset17:4023:40
Evening civil twilight18:0500:05

Current date and time
Zulu (UTC)  22-Feb-2019 23:59:12
Local (UTC-6)  22-Feb-2019 17:59:12
 
METAR
KNSE 
20nm S 
222256Z 13009KT 6SM BR OVC005 21/21 A3009 RMK AO2 SLP174 T02110211 $
KNDZ 
21nm S 
222313Z 15007KT 6SM BR OVC004 21/21 A3009 RMK AO2 T02110211 $
KGZH 
22nm N 
222353Z AUTO 18005KT 10SM BKN025 BKN032 BKN100 24/19 A3008 RMK AO2 SLP183 T02390194 10283 20239 52003
2R4 
25nm S 
SuperAWOS
222335Z AUTO 15006KT 27/26 A3007
KCEW 
33nm SE 
222353Z AUTO VRB03KT 10SM OVC009 22/20 A3011 RMK AO2 SLP194 T02220200 10256 20222 51002
KPNS 
35nm S 
222353Z 11011KT 1/4SM R17/1600V2000FT FG VV002 20/19 A3008 RMK AO2 SLP188 T02000189 10228 20200 57001
K79J 
38nm NE 
222256Z AUTO VRB03KT 10SM SCT032 BKN042 BKN080 26/19 A3009 RMK AO2 SLP184 T02610189
KEGI 
38nm SE 
222339Z AUTO 14004KT 10SM OVC006 22/21 A3010 RMK AO2 SLPNO $
K0J4 
39nm E 
222258Z AUTO 16005KT 10SM FEW025 SCT049 24/19 A3011 RMK AO2 SLP193 T02390189
TAF
KNSE 
20nm S 
2223/2323 13006KT 8000 BR OVC005 QNH3006INS TEMPO 2223/2302 0800 BR VV002 BECMG 2302/2304 VRB04KT 0400 FG VV001 QNH3006INS BECMG 2314/2316 15006KT 6000 BR VCSH BKN007 OVC012 QNH3007INS FM231900 16010G15KT 9999 VCSH SCT015 SCT025 BKN100 BKN250 QNH3005INS TEMPO 2319/2323 BKN015 BKN025 AUTOMATED SENSOR METWATCH 2305 TIL 2512 T20/2311Z T25/2320Z FN20031
NOTAMs
Click for the latest NOTAMs
NOTAMs are issued by the DoD/FAA and will open in a separate window not controlled by AirNav.

 

 
 

FBO, Fuel Providers, and Aircraft Ground Support

  
 Business Name 
 
 Contact 
 
 Services / Description 
 
Fuel Prices
 
Comments
  
Aviation Specialists LLC 251-867-9997
[email]
Airport management, Aviation fuel, Aircraft ground handling, Aircraft parking (ramp or tiedown), Hangars, Hangar leasing / sales, GPU / Power cart, ...

More info about Aviation Specialists LLC
Shell
100LL Jet A
FS $4.30 $3.60 
 Updated 11-Feb-2019
 
   3 read write
FS=Full service
Update Fuel Prices
 

Would you like to see your business listed on this page?

 If your business provides an interesting product or service to pilots, flight crews, aircraft, or users of the Brewton Municipal Airport, you should consider listing it here.  To start the listing process, click on the button below
 
Add a business
 

Other Pages about Brewton Municipal Airport

www.brewtonchamber.com/Resources.htm#airport
 
Update a link
 
Copyright © AirNav, LLC. All rights reserved. Privacy Policy  Contact